Time,TemperatureF,DewpointF,PressureIn,WindDirection,WindDirectionDegrees,WindSpeedMPH,WindSpeedGustMPH,Humidity,HourlyPrecipIn,Conditions,Clouds,dailyrainin,SoftwareType,DateUTC
2013-03-21 00:00:00,37.7,28.8,29.80,NNW,328,0.0,1.0,70,0.00,,,0.00,Wunderground v.1.15,2013-03-21 04:00:00,
2013-03-21 00:02:00,37.7,28.8,29.79,NNW,328,0.0,1.0,70,0.00,,,0.00,Wunderground v.1.15,2013-03-21 04:02:00,
2013-03-21 00:05:00,37.8,28.5,29.79,NNW,328,0.0,1.0,69,0.00,,,0.00,Wunderground v.1.15,2013-03-21 04:05:00,
2013-03-21 00:09:00,37.8,28.9,29.79,NNW,328,0.0,1.0,70,0.00,,,0.00,Wunderground v.1.15,2013-03-21 04:09:00,
2013-03-21 00:15:00,37.8,28.9,29.79,NNW,328,0.0,1.0,70,0.00,,,0.00,Wunderground v.1.15,2013-03-21 04:15:00,
2013-03-21 00:20:00,38.0,29.1,29.79,NNW,328,0.0,1.0,70,0.00,,,0.00,Wunderground v.1.15,2013-03-21 04:20:00,
2013-03-21 00:26:00,38.1,28.5,29.79,NNW,328,0.0,1.0,68,0.00,,,0.00,Wunderground v.1.15,2013-03-21 04:26:00,
2013-03-21 00:32:00,38.4,28.8,29.79,NNW,328,0.0,1.0,68,0.00,,,0.00,Wunderground v.1.15,2013-03-21 04:32:00,
2013-03-21 00:38:00,38.6,29.3,29.79,NNW,328,0.0,1.0,69,0.00,,,0.00,Wunderground v.1.15,2013-03-21 04:38:00,
2013-03-21 00:44:00,38.8,29.5,29.79,NNW,328,0.0,1.0,69,0.00,,,0.00,Wunderground v.1.15,2013-03-21 04:44:00,
2013-03-21 00:49:00,38.9,29.2,29.78,NNW,328,0.0,1.0,68,0.00,,,0.00,Wunderground v.1.15,2013-03-21 04:49:00,
2013-03-21 00:55:00,38.9,29.9,29.78,NNW,328,0.0,1.0,70,0.00,,,0.00,Wunderground v.1.15,2013-03-21 04:55:00,
2013-03-21 01:00:00,38.9,29.2,29.78,NNW,328,0.0,1.0,68,0.00,,,0.00,Wunderground v.1.15,2013-03-21 05:00:00,
2013-03-21 01:05:00,39.1,29.4,29.77,NNW,328,0.0,1.0,68,0.00,,,0.00,Wunderground v.1.15,2013-03-21 05:05:00,
2013-03-21 01:10:00,39.2,29.5,29.77,NNW,328,0.0,1.0,68,0.00,,,0.00,Wunderground v.1.15,2013-03-21 05:10:00,
2013-03-21 01:16:00,39.4,29.7,29.77,NNW,328,0.0,1.0,68,0.00,,,0.00,Wunderground v.1.15,2013-03-21 05:16:00,
2013-03-21 01:22:00,39.6,29.9,29.77,NNW,328,0.0,1.0,68,0.00,,,0.00,Wunderground v.1.15,2013-03-21 05:22:00,
2013-03-21 01:27:00,39.8,30.1,29.77,NNW,328,0.0,1.0,68,0.00,,,0.00,Wunderground v.1.15,2013-03-21 05:27:00,
2013-03-21 01:33:00,40.1,30.0,29.77,NNW,328,0.0,1.0,67,0.00,,,0.00,Wunderground v.1.15,2013-03-21 05:33:00,
2013-03-21 01:38:00,40.4,30.3,29.77,NNW,328,0.0,1.0,67,0.00,,,0.00,Wunderground v.1.15,2013-03-21 05:38:00,
2013-03-21 01:43:00,40.7,29.8,29.77,NNW,328,0.0,1.0,65,0.00,,,0.00,Wunderground v.1.15,2013-03-21 05:43:00,
2013-03-21 01:48:00,41.1,29.8,29.77,East,101,0.0,1.0,64,0.00,,,0.00,Wunderground v.1.15,2013-03-21 05:48:00,
2013-03-21 01:53:00,42.0,31.8,29.78,WSW,256,0.0,1.0,67,0.00,,,0.00,Wunderground v.1.15,2013-03-21 05:53:00,
2013-03-21 01:58:00,42.7,32.5,29.77,WSW,256,0.0,1.0,67,0.00,,,0.00,Wunderground v.1.15,2013-03-21 05:58:00,
2013-03-21 02:04:00,43.5,33.6,29.76,East,84,0.0,1.0,68,0.00,,,0.00,Wunderground v.1.15,2013-03-21 06:04:00,
2013-03-21 02:09:00,43.8,33.9,29.76,WSW,256,0.0,1.0,68,0.00,,,0.00,Wunderground v.1.15,2013-03-21 06:09:00,
2013-03-21 02:15:00,43.8,34.6,29.75,WSW,256,0.0,1.0,70,0.00,,,0.00,Wunderground v.1.15,2013-03-21 06:15:00,
2013-03-21 02:21:00,43.7,34.6,29.75,WSW,256,0.0,1.0,70,0.00,,,0.00,Wunderground v.1.15,2013-03-21 06:21:00,
2013-03-21 02:27:00,43.6,35.2,29.74,WSW,256,0.0,1.0,72,0.00,,,0.00,Wunderground v.1.15,2013-03-21 06:27:00,
2013-03-21 02:32:00,43.4,35.0,29.74,WSW,256,0.0,1.0,72,0.00,,,0.00,Wunderground v.1.15,2013-03-21 06:32:00,
2013-03-21 02:38:00,43.3,35.2,29.74,WSW,256,0.0,1.0,73,0.00,,,0.00,Wunderground v.1.15,2013-03-21 06:38:00,
2013-03-21 02:44:00,42.8,35.1,29.74,WSW,256,0.0,1.0,74,0.00,,,0.00,Wunderground v.1.15,2013-03-21 06:44:00,
2013-03-21 02:50:00,42.4,34.7,29.74,WSW,256,0.0,1.0,74,0.00,,,0.00,Wunderground v.1.15,2013-03-21 06:50:00,
2013-03-21 02:55:00,41.9,34.6,29.74,WSW,256,0.0,1.0,75,0.00,,,0.00,Wunderground v.1.15,2013-03-21 06:55:00,
2013-03-21 03:01:00,41.3,34.6,29.74,WSW,256,0.0,1.0,77,0.00,,,0.00,Wunderground v.1.15,2013-03-21 07:01:00,
2013-03-21 03:07:00,40.8,34.1,29.74,WSW,256,0.0,1.0,77,0.00,,,0.00,Wunderground v.1.15,2013-03-21 07:07:00,
2013-03-21 03:12:00,40.5,34.2,29.74,WSW,257,0.0,1.0,78,0.00,,,0.00,Wunderground v.1.15,2013-03-21 07:12:00,
2013-03-21 03:18:00,40.0,34.0,29.74,WSW,256,0.0,1.0,79,0.00,,,0.00,Wunderground v.1.15,2013-03-21 07:18:00,
2013-03-21 03:23:00,39.7,33.7,29.74,WSW,256,0.0,1.0,79,0.00,,,0.00,Wunderground v.1.15,2013-03-21 07:23:00,
2013-03-21 03:29:00,39.4,33.7,29.74,WSW,256,0.0,1.0,80,0.00,,,0.00,Wunderground v.1.15,2013-03-21 07:29:00,
2013-03-21 03:35:00,39.1,33.8,29.75,WSW,256,0.0,1.0,81,0.00,,,0.00,Wunderground v.1.15,2013-03-21 07:35:00,
2013-03-21 03:41:00,38.8,33.5,29.74,WSW,256,0.0,1.0,81,0.00,,,0.00,Wunderground v.1.15,2013-03-21 07:41:00,
2013-03-21 03:47:00,38.8,33.8,29.74,WSW,256,0.0,1.0,82,0.00,,,0.00,Wunderground v.1.15,2013-03-21 07:47:00,
2013-03-21 03:53:00,38.9,33.6,29.74,South,169,0.0,1.0,81,0.00,,,0.00,Wunderground v.1.15,2013-03-21 07:53:00,
2013-03-21 03:59:00,39.4,33.1,29.74,West,270,0.0,1.0,78,0.00,,,0.00,Wunderground v.1.15,2013-03-21 07:59:00,
2013-03-21 04:05:00,39.7,32.8,29.74,SE,145,0.0,1.0,76,0.00,,,0.00,Wunderground v.1.15,2013-03-21 08:05:00,
2013-03-21 04:11:00,39.9,31.9,29.74,SE,131,0.0,1.0,73,0.00,,,0.00,Wunderground v.1.15,2013-03-21 08:11:00,
2013-03-21 04:16:00,40.2,31.9,29.74,West,269,0.0,1.0,72,0.00,,,0.00,Wunderground v.1.15,2013-03-21 08:16:00,
2013-03-21 04:22:00,40.3,30.2,29.74,ENE,73,0.0,1.0,67,0.00,,,0.00,Wunderground v.1.15,2013-03-21 08:22:00,
2013-03-21 04:28:00,40.7,30.2,29.74,East,98,0.0,1.0,66,0.00,,,0.00,Wunderground v.1.15,2013-03-21 08:28:00,
2013-03-21 04:34:00,40.7,29.8,29.74,East,88,0.0,1.0,65,0.00,,,0.00,Wunderground v.1.15,2013-03-21 08:34:00,
2013-03-21 04:40:00,40.7,29.5,29.74,East,87,0.0,1.0,64,0.00,,,0.00,Wunderground v.1.15,2013-03-21 08:40:00,
2013-03-21 04:45:00,40.7,29.5,29.74,SE,125,0.0,1.0,64,0.00,,,0.00,Wunderground v.1.15,2013-03-21 08:45:00,
2013-03-21 04:50:00,40.6,29.4,29.74,SW,224,0.0,1.0,64,0.00,,,0.00,Wunderground v.1.15,2013-03-21 08:50:00,
2013-03-21 04:55:00,40.6,29.4,29.74,SW,218,0.0,1.0,64,0.00,,,0.00,Wunderground v.1.15,2013-03-21 08:55:00,
2013-03-21 05:01:00,40.5,29.3,29.75,WSW,242,0.0,1.0,64,0.00,,,0.00,Wunderground v.1.15,2013-03-21 09:01:00,
2013-03-21 05:07:00,40.5,28.9,29.75,ESE,122,0.0,1.0,63,0.00,,,0.00,Wunderground v.1.15,2013-03-21 09:07:00,
2013-03-21 05:12:00,40.4,28.8,29.75,ESE,122,0.0,1.0,63,0.00,,,0.00,Wunderground v.1.15,2013-03-21 09:12:00,
2013-03-21 05:18:00,40.2,28.6,29.75,ESE,122,0.0,1.0,63,0.00,,,0.00,Wunderground v.1.15,2013-03-21 09:18:00,
2013-03-21 05:24:00,40.0,28.8,29.75,SE,124,0.0,1.0,64,0.00,,,0.00,Wunderground v.1.15,2013-03-21 09:24:00,
2013-03-21 05:29:00,40.0,27.6,29.75,ESE,120,0.0,2.0,61,0.00,,,0.00,Wunderground v.1.15,2013-03-21 09:29:00,
2013-03-21 05:35:00,39.9,27.5,29.76,South,180,0.0,1.0,61,0.00,,,0.00,Wunderground v.1.15,2013-03-21 09:35:00,
2013-03-21 05:41:00,39.8,27.4,29.76,ESE,114,0.0,1.0,61,0.00,,,0.00,Wunderground v.1.15,2013-03-21 09:41:00,
2013-03-21 05:47:00,39.6,27.6,29.76,ESE,113,0.0,1.0,62,0.00,,,0.00,Wunderground v.1.15,2013-03-21 09:47:00,
2013-03-21 05:52:00,39.4,26.7,29.77,ENE,74,0.0,1.0,60,0.00,,,0.00,Wunderground v.1.15,2013-03-21 09:52:00,
2013-03-21 05:58:00,39.4,26.2,29.77,NE,50,0.0,2.0,59,0.00,,,0.00,Wunderground v.1.15,2013-03-21 09:58:00,
2013-03-21 06:04:00,39.4,26.2,29.77,SE,131,0.0,0.0,59,0.00,,,0.00,Wunderground v.1.15,2013-03-21 10:04:00,
2013-03-21 06:10:00,39.3,26.6,29.77,ENE,78,0.0,0.0,60,0.00,,,0.00,Wunderground v.1.15,2013-03-21 10:10:00,
2013-03-21 06:15:00,39.2,26.1,29.77,WSW,253,0.0,1.0,59,0.00,,,0.00,Wunderground v.1.15,2013-03-21 10:15:00,
2013-03-21 06:21:00,39.2,26.1,29.77,WSW,253,0.0,0.0,59,0.00,,,0.00,Wunderground v.1.15,2013-03-21 10:21:00,
2013-03-21 06:27:00,39.2,26.1,29.77,ENE,58,0.0,0.0,59,0.00,,,0.00,Wunderground v.1.15,2013-03-21 10:27:00,
2013-03-21 06:33:00,39.2,26.1,29.78,ENE,60,0.0,0.0,59,0.00,,,0.00,Wunderground v.1.15,2013-03-21 10:33:00,
2013-03-21 06:39:00,39.1,26.0,29.78,ENE,69,0.0,0.0,59,0.00,,,0.00,Wunderground v.1.15,2013-03-21 10:39:00,
2013-03-21 06:45:00,38.8,26.1,29.78,East,80,0.0,0.0,60,0.00,,,0.00,Wunderground v.1.15,2013-03-21 10:45:00,
2013-03-21 06:50:00,38.6,25.9,29.78,East,80,0.0,0.0,60,0.00,,,0.00,Wunderground v.1.15,2013-03-21 10:50:00,
2013-03-21 06:56:00,38.4,26.1,29.78,East,80,0.0,0.0,61,0.00,,,0.00,Wunderground v.1.15,2013-03-21 10:56:00,
2013-03-21 07:02:00,38.1,26.2,29.78,East,80,0.0,3.0,62,0.00,,,0.00,Wunderground v.1.15,2013-03-21 11:02:00,
2013-03-21 07:07:00,37.9,26.0,29.78,East,85,0.0,3.0,62,0.00,,,0.00,Wunderground v.1.15,2013-03-21 11:07:00,
2013-03-21 07:13:00,37.7,25.8,29.78,East,84,0.0,3.0,62,0.00,,,0.00,Wunderground v.1.15,2013-03-21 11:13:00,
2013-03-21 07:19:00,37.4,25.9,29.78,East,84,0.0,3.0,63,0.00,,,0.00,Wunderground v.1.15,2013-03-21 11:19:00,
2013-03-21 07:25:00,37.2,25.8,29.78,East,83,0.0,3.0,63,0.00,,,0.00,Wunderground v.1.15,2013-03-21 11:25:00,
2013-03-21 07:31:00,37.1,25.7,29.78,ENE,63,0.0,3.0,63,0.00,,,0.00,Wunderground v.1.15,2013-03-21 11:31:00,
2013-03-21 07:37:00,37.0,25.6,29.79,ENE,63,0.0,3.0,63,0.00,,,0.00,Wunderground v.1.15,2013-03-21 11:37:00,
2013-03-21 07:42:00,36.9,26.2,29.79,ENE,63,0.0,3.0,65,0.00,,,0.00,Wunderground v.1.15,2013-03-21 11:42:00,
2013-03-21 07:49:00,36.8,25.4,29.79,WSW,256,0.0,3.0,63,0.00,,,0.00,Wunderground v.1.15,2013-03-21 11:49:00,
2013-03-21 07:54:00,36.8,25.0,29.80,SE,142,0.0,3.0,62,0.00,,,0.00,Wunderground v.1.15,2013-03-21 11:54:00,
2013-03-21 07:59:00,36.8,25.0,29.80,ESE,114,0.0,3.0,62,0.00,,,0.00,Wunderground v.1.15,2013-03-21 11:59:00,
2013-03-21 08:04:00,36.7,24.9,29.80,East,79,0.0,3.0,62,0.00,,,0.00,Wunderground v.1.15,2013-03-21 12:04:00,
2013-03-21 08:10:00,36.7,24.5,29.80,ESE,113,0.0,3.0,61,0.00,,,0.00,Wunderground v.1.15,2013-03-21 12:10:00,
2013-03-21 08:16:00,36.7,24.1,29.80,ENE,60,0.0,3.0,60,0.00,,,0.00,Wunderground v.1.15,2013-03-21 12:16:00,
2013-03-21 08:22:00,36.9,24.7,29.80,WNW,303,0.0,3.0,61,0.00,,,0.00,Wunderground v.1.15,2013-03-21 12:22:00,
2013-03-21 08:27:00,37.1,24.5,29.80,ENE,69,0.0,3.0,60,0.00,,,0.00,Wunderground v.1.15,2013-03-21 12:27:00,
2013-03-21 08:33:00,37.3,24.7,29.80,NNE,33,0.0,3.0,60,0.00,,,0.00,Wunderground v.1.15,2013-03-21 12:33:00,
2013-03-21 08:38:00,37.6,24.6,29.80,East,84,1.0,3.0,59,0.00,,,0.00,Wunderground v.1.15,2013-03-21 12:38:00,
2013-03-21 08:44:00,37.8,24.3,29.80,West,281,0.0,3.0,58,0.00,,,0.00,Wunderground v.1.15,2013-03-21 12:44:00,
2013-03-21 08:50:00,38.2,24.7,29.81,ESE,107,0.0,3.0,58,0.00,,,0.00,Wunderground v.1.15,2013-03-21 12:50:00,
2013-03-21 08:56:00,38.5,24.6,29.81,East,79,1.0,3.0,57,0.00,,,0.00,Wunderground v.1.15,2013-03-21 12:56:00,
2013-03-21 09:02:00,38.7,23.5,29.81,East,91,1.0,3.0,54,0.00,,,0.00,Wunderground v.1.15,2013-03-21 13:02:00,
2013-03-21 09:08:00,39.3,24.0,29.81,West,271,1.0,3.0,54,0.00,,,0.00,Wunderground v.1.15,2013-03-21 13:08:00,
2013-03-21 09:13:00,40.0,23.8,29.82,ENE,71,1.0,3.0,52,0.00,,,0.00,Wunderground v.1.15,2013-03-21 13:13:00,
2013-03-21 09:19:00,39.7,23.0,29.81,ENE,77,1.0,3.0,51,0.00,,,0.00,Wunderground v.1.15,2013-03-21 13:19:00,
2013-03-21 09:24:00,39.9,23.7,29.81,West,266,1.0,3.0,52,0.00,,,0.00,Wunderground v.1.15,2013-03-21 13:24:00,
2013-03-21 09:30:00,40.0,22.8,29.81,NNE,14,1.0,1.0,50,0.00,,,0.00,Wunderground v.1.15,2013-03-21 13:30:00,
2013-03-21 09:35:00,40.5,22.3,29.81,ESE,104,1.0,3.0,48,0.00,,,0.00,Wunderground v.1.15,2013-03-21 13:35:00,
2013-03-21 09:41:00,40.5,21.8,29.81,ENE,61,1.0,3.0,47,0.00,,,0.00,Wunderground v.1.15,2013-03-21 13:41:00,
2013-03-21 09:47:00,40.8,23.1,29.81,SW,231,1.0,3.0,49,0.00,,,0.00,Wunderground v.1.15,2013-03-21 13:47:00,
2013-03-21 09:52:00,41.2,22.5,29.81,NE,49,0.0,3.0,47,0.00,,,0.00,Wunderground v.1.15,2013-03-21 13:52:00,
2013-03-21 09:58:00,41.4,22.7,29.81,East,83,1.0,4.0,47,0.00,,,0.00,Wunderground v.1.15,2013-03-21 13:58:00,
2013-03-21 10:04:00,41.6,22.3,29.81,NE,53,1.0,3.0,46,0.00,,,0.00,Wunderground v.1.15,2013-03-21 14:04:00,
2013-03-21 10:10:00,41.8,22.5,29.81,West,262,1.0,1.0,46,0.00,,,0.00,Wunderground v.1.15,2013-03-21 14:10:00,
2013-03-21 10:16:00,41.9,23.6,29.81,West,269,1.0,3.0,48,0.00,,,0.00,Wunderground v.1.15,2013-03-21 14:16:00,
2013-03-21 10:21:00,42.4,22.0,29.81,West,259,1.0,3.0,44,0.00,,,0.00,Wunderground v.1.15,2013-03-21 14:21:00,
2013-03-21 10:27:00,42.6,21.6,29.82,NNW,339,1.0,3.0,43,0.00,,,0.00,Wunderground v.1.15,2013-03-21 14:27:00,
2013-03-21 10:33:00,42.8,22.4,29.82,West,271,1.0,3.0,44,0.00,,,0.00,Wunderground v.1.15,2013-03-21 14:33:00,
2013-03-21 10:39:00,43.5,20.7,29.82,WNW,284,1.0,3.0,40,0.00,,,0.00,Wunderground v.1.15,2013-03-21 14:39:00,
2013-03-21 10:45:00,43.6,20.2,29.82,ESE,107,1.0,3.0,39,0.00,,,0.00,Wunderground v.1.15,2013-03-21 14:45:00,
2013-03-21 10:50:00,44.0,20.0,29.82,East,86,0.0,3.0,38,0.00,,,0.00,Wunderground v.1.15,2013-03-21 14:50:00,
2013-03-21 10:55:00,43.8,19.8,29.82,ENE,73,1.0,3.0,38,0.00,,,0.00,Wunderground v.1.15,2013-03-21 14:55:00,
2013-03-21 11:01:00,43.6,19.0,29.82,WSW,258,1.0,3.0,37,0.00,,,0.00,Wunderground v.1.15,2013-03-21 15:01:00,
2013-03-21 11:07:00,43.9,19.3,29.82,WSW,256,1.0,3.0,37,0.00,,,0.00,Wunderground v.1.15,2013-03-21 15:07:00,
2013-03-21 11:13:00,43.9,18.0,29.82,WSW,245,1.0,3.0,35,0.00,,,0.00,Wunderground v.1.15,2013-03-21 15:13:00,
2013-03-21 11:18:00,44.0,18.1,29.82,WSW,253,1.0,3.0,35,0.00,,,0.00,Wunderground v.1.15,2013-03-21 15:18:00,
2013-03-21 11:24:00,44.4,19.1,29.82,ENE,58,1.0,3.0,36,0.00,,,0.00,Wunderground v.1.15,2013-03-21 15:24:00,
2013-03-21 11:29:00,45.0,17.6,29.82,ENE,65,1.0,3.0,33,0.00,,,0.00,Wunderground v.1.15,2013-03-21 15:29:00,
2013-03-21 11:35:00,45.1,17.7,29.82,ESE,113,1.0,3.0,33,0.00,,,0.00,Wunderground v.1.15,2013-03-21 15:35:00,
2013-03-21 11:40:00,45.5,18.7,29.81,NW,308,1.0,1.0,34,0.00,,,0.00,Wunderground v.1.15,2013-03-21 15:40:00,
2013-03-21 11:47:00,46.4,19.5,29.81,West,267,0.0,3.0,34,0.00,,,0.00,Wunderground v.1.15,2013-03-21 15:47:00,
2013-03-21 11:52:00,46.5,18.9,29.81,WSW,245,1.0,3.0,33,0.00,,,0.00,Wunderground v.1.15,2013-03-21 15:52:00,
2013-03-21 11:58:00,46.1,17.8,29.81,NE,35,1.0,3.0,32,0.00,,,0.00,Wunderground v.1.15,2013-03-21 15:58:00,
2013-03-21 12:04:00,46.2,19.3,29.80,ENE,57,1.0,3.0,34,0.00,,,0.00,Wunderground v.1.15,2013-03-21 16:04:00,
2013-03-21 12:09:00,46.8,19.9,29.81,ENE,64,1.0,3.0,34,0.00,,,0.00,Wunderground v.1.15,2013-03-21 16:09:00,
2013-03-21 12:15:00,46.9,19.3,29.81,ESE,108,1.0,3.0,33,0.00,,,0.00,Wunderground v.1.15,2013-03-21 16:15:00,
2013-03-21 12:21:00,46.5,18.9,29.80,WSW,243,1.0,3.0,33,0.00,,,0.00,Wunderground v.1.15,2013-03-21 16:21:00,
2013-03-21 12:26:00,46.5,18.2,29.80,SW,222,1.0,3.0,32,0.00,,,0.00,Wunderground v.1.15,2013-03-21 16:26:00,
2013-03-21 12:32:00,46.5,18.2,29.80,NE,55,1.0,3.0,32,0.00,,,0.00,Wunderground v.1.15,2013-03-21 16:32:00,
2013-03-21 12:37:00,47.1,20.1,29.79,WNW,302,1.0,3.0,34,0.00,,,0.00,Wunderground v.1.15,2013-03-21 16:37:00,
2013-03-21 12:43:00,47.5,19.1,29.80,WNW,283,1.0,3.0,32,0.00,,,0.00,Wunderground v.1.15,2013-03-21 16:43:00,
2013-03-21 12:49:00,46.9,18.5,29.80,WSW,250,1.0,3.0,32,0.00,,,0.00,Wunderground v.1.15,2013-03-21 16:49:00,
2013-03-21 12:55:00,46.9,17.0,29.80,East,91,1.0,3.0,30,0.00,,,0.00,Wunderground v.1.15,2013-03-21 16:55:00,
2013-03-21 13:01:00,47.1,18.7,29.80,ENE,59,1.0,2.0,32,0.00,,,0.00,Wunderground v.1.15,2013-03-21 17:01:00,
2013-03-21 13:06:00,47.1,18.7,29.80,SW,228,1.0,3.0,32,0.00,,,0.00,Wunderground v.1.15,2013-03-21 17:06:00,
2013-03-21 13:12:00,46.9,20.6,29.80,East,88,1.0,3.0,35,0.00,,,0.00,Wunderground v.1.15,2013-03-21 17:12:00,
2013-03-21 13:17:00,47.3,18.9,29.80,West,271,1.0,3.0,32,0.00,,,0.00,Wunderground v.1.15,2013-03-21 17:17:00,
2013-03-21 13:22:00,47.3,18.1,29.80,WNW,283,1.0,3.0,31,0.00,,,0.00,Wunderground v.1.15,2013-03-21 17:22:00,
2013-03-21 13:28:00,46.6,19.0,29.81,ENE,58,1.0,3.0,33,0.00,,,0.00,Wunderground v.1.15,2013-03-21 17:28:00,
2013-03-21 13:33:00,46.3,19.4,29.80,East,84,1.0,3.0,34,0.00,,,0.00,Wunderground v.1.15,2013-03-21 17:33:00,
2013-03-21 13:39:00,45.3,17.8,29.80,ENE,78,1.0,3.0,33,0.00,,,0.00,Wunderground v.1.15,2013-03-21 17:39:00,
2013-03-21 13:45:00,45.5,18.7,29.80,WSW,240,1.0,3.0,34,0.00,,,0.00,Wunderground v.1.15,2013-03-21 17:45:00,
2013-03-21 13:51:00,47.3,19.6,29.80,West,267,1.0,3.0,33,0.00,,,0.00,Wunderground v.1.15,2013-03-21 17:51:00,
2013-03-21 13:56:00,47.2,18.8,29.80,NNE,31,1.0,4.0,32,0.00,,,0.00,Wunderground v.1.15,2013-03-21 17:56:00,
2013-03-21 14:03:00,47.1,20.1,29.80,NE,53,1.0,3.0,34,0.00,,,0.00,Wunderground v.1.15,2013-03-21 18:03:00,
2013-03-21 14:08:00,47.9,17.9,29.79,West,273,1.0,3.0,30,0.00,,,0.00,Wunderground v.1.15,2013-03-21 18:08:00,
2013-03-21 14:14:00,48.8,18.7,29.79,East,83,1.0,3.0,30,0.00,,,0.00,Wunderground v.1.15,2013-03-21 18:14:00,
2013-03-21 14:20:00,48.2,19.7,29.80,ENE,72,1.0,1.0,32,0.00,,,0.00,Wunderground v.1.15,2013-03-21 18:20:00,
2013-03-21 14:26:00,48.3,19.0,29.80,ESE,104,1.0,3.0,31,0.00,,,0.00,Wunderground v.1.15,2013-03-21 18:26:00,
2013-03-21 14:32:00,48.4,17.6,29.79,ENE,72,1.0,3.0,29,0.00,,,0.00,Wunderground v.1.15,2013-03-21 18:32:00,
2013-03-21 14:37:00,49.0,19.6,29.79,ENE,65,1.0,3.0,31,0.00,,,0.00,Wunderground v.1.15,2013-03-21 18:37:00,
2013-03-21 14:43:00,49.6,17.8,29.79,ENE,67,1.0,3.0,28,0.00,,,0.00,Wunderground v.1.15,2013-03-21 18:43:00,
2013-03-21 14:48:00,49.8,17.1,29.79,ENE,58,1.0,3.0,27,0.00,,,0.00,Wunderground v.1.15,2013-03-21 18:48:00,
2013-03-21 14:54:00,49.8,17.1,29.79,WNW,302,1.0,3.0,27,0.00,,,0.00,Wunderground v.1.15,2013-03-21 18:54:00,
2013-03-21 14:59:00,49.5,18.5,29.79,WNW,292,1.0,3.0,29,0.00,,,0.00,Wunderground v.1.15,2013-03-21 18:59:00,
2013-03-21 15:04:00,49.6,17.8,29.79,NNW,328,1.0,3.0,28,0.00,,,0.00,Wunderground v.1.15,2013-03-21 19:04:00,
2013-03-21 15:10:00,48.1,16.5,29.79,ENE,60,1.0,1.0,28,0.00,,,0.00,Wunderground v.1.15,2013-03-21 19:10:00,
2013-03-21 15:18:00,46.2,17.2,29.79,ENE,64,1.0,3.0,31,0.00,,,0.00,Wunderground v.1.15,2013-03-21 19:18:00,
2013-03-21 15:23:00,45.5,16.6,29.79,NE,50,1.0,3.0,31,0.00,,,0.00,Wunderground v.1.15,2013-03-21 19:23:00,
2013-03-21 15:29:00,45.1,17.7,29.79,NNW,343,0.0,3.0,33,0.00,,,0.00,Wunderground v.1.15,2013-03-21 19:29:00,
2013-03-21 15:34:00,44.8,16.0,29.79,ESE,109,0.0,3.0,31,0.00,,,0.00,Wunderground v.1.15,2013-03-21 19:34:00,
2013-03-21 15:40:00,45.5,17.3,29.79,ENE,64,0.0,3.0,32,0.00,,,0.00,Wunderground v.1.15,2013-03-21 19:40:00,
2013-03-21 15:46:00,45.7,18.2,29.80,East,98,1.0,3.0,33,0.00,,,0.00,Wunderground v.1.15,2013-03-21 19:46:00,
2013-03-21 15:52:00,45.3,16.4,29.80,West,277,1.0,3.0,31,0.00,,,0.00,Wunderground v.1.15,2013-03-21 19:52:00,
2013-03-21 15:58:00,44.5,16.4,29.80,East,100,1.0,4.0,32,0.00,,,0.00,Wunderground v.1.15,2013-03-21 19:58:00,
2013-03-21 16:03:00,43.9,16.6,29.80,ESE,104,1.0,3.0,33,0.00,,,0.00,Wunderground v.1.15,2013-03-21 20:03:00,
2013-03-21 16:09:00,44.1,16.1,29.81,NE,56,1.0,3.0,32,0.00,,,0.00,Wunderground v.1.15,2013-03-21 20:09:00,
2013-03-21 16:14:00,44.3,17.7,29.81,West,269,1.0,3.0,34,0.00,,,0.00,Wunderground v.1.15,2013-03-21 20:14:00,
2013-03-21 16:20:00,44.7,16.6,29.81,ENE,64,1.0,3.0,32,0.00,,,0.00,Wunderground v.1.15,2013-03-21 20:20:00,
2013-03-21 16:27:00,44.4,15.6,29.81,ENE,71,1.0,4.0,31,0.00,,,0.00,Wunderground v.1.15,2013-03-21 20:27:00,
2013-03-21 16:33:00,44.0,17.4,29.81,North,1,1.0,3.0,34,0.00,,,0.00,Wunderground v.1.15,2013-03-21 20:33:00,
2013-03-21 16:39:00,43.6,17.0,29.81,East,82,1.0,3.0,34,0.00,,,0.00,Wunderground v.1.15,2013-03-21 20:39:00,
2013-03-21 16:44:00,43.4,16.9,29.82,ESE,113,1.0,3.0,34,0.00,,,0.00,Wunderground v.1.15,2013-03-21 20:44:00,
2013-03-21 16:50:00,43.3,17.4,29.82,South,184,1.0,1.0,35,0.00,,,0.00,Wunderground v.1.15,2013-03-21 20:50:00,
2013-03-21 16:56:00,43.1,17.3,29.82,NNE,26,1.0,3.0,35,0.00,,,0.00,Wunderground v.1.15,2013-03-21 20:56:00,
2013-03-21 17:02:00,43.4,17.5,29.82,East,98,1.0,3.0,35,0.00,,,0.00,Wunderground v.1.15,2013-03-21 21:02:00,
2013-03-21 17:08:00,43.8,17.9,29.83,East,86,1.0,3.0,35,0.00,,,0.00,Wunderground v.1.15,2013-03-21 21:08:00,
2013-03-21 17:14:00,43.7,18.5,29.83,East,84,1.0,3.0,36,0.00,,,0.00,Wunderground v.1.15,2013-03-21 21:14:00,
2013-03-21 17:19:00,43.9,18.0,29.83,SE,145,0.0,3.0,35,0.00,,,0.00,Wunderground v.1.15,2013-03-21 21:19:00,
2013-03-21 17:25:00,43.7,17.1,29.83,ESE,115,1.0,3.0,34,0.00,,,0.00,Wunderground v.1.15,2013-03-21 21:25:00,
2013-03-21 17:32:00,43.3,16.8,29.83,ENE,71,1.0,3.0,34,0.00,,,0.00,Wunderground v.1.15,2013-03-21 21:32:00,
2013-03-21 17:37:00,43.5,16.9,29.83,NE,50,1.0,3.0,34,0.00,,,0.00,Wunderground v.1.15,2013-03-21 21:37:00,
2013-03-21 17:42:00,43.6,17.0,29.84,NE,53,1.0,3.0,34,0.00,,,0.00,Wunderground v.1.15,2013-03-21 21:42:00,
2013-03-21 17:48:00,43.2,16.7,29.84,ESE,103,1.0,3.0,34,0.00,,,0.00,Wunderground v.1.15,2013-03-21 21:48:00,
2013-03-21 17:54:00,42.9,16.4,29.84,West,264,1.0,3.0,34,0.00,,,0.00,Wunderground v.1.15,2013-03-21 21:54:00,
2013-03-21 17:59:00,42.4,16.0,29.85,ENE,74,1.0,3.0,34,0.00,,,0.00,Wunderground v.1.15,2013-03-21 21:59:00,
2013-03-21 18:04:00,42.2,16.5,29.85,SW,219,1.0,5.0,35,0.00,,,0.00,Wunderground v.1.15,2013-03-21 22:04:00,
2013-03-21 18:10:00,41.9,16.2,29.85,WNW,300,1.0,3.0,35,0.00,,,0.00,Wunderground v.1.15,2013-03-21 22:10:00,
2013-03-21 18:16:00,41.6,15.3,29.85,East,85,1.0,3.0,34,0.00,,,0.00,Wunderground v.1.15,2013-03-21 22:16:00,
2013-03-21 18:22:00,41.3,16.3,29.85,WSW,252,1.0,3.0,36,0.00,,,0.00,Wunderground v.1.15,2013-03-21 22:22:00,
2013-03-21 18:28:00,41.1,14.8,29.86,ENE,62,1.0,3.0,34,0.00,,,0.00,Wunderground v.1.15,2013-03-21 22:28:00,
2013-03-21 18:33:00,40.8,15.2,29.86,East,94,1.0,3.0,35,0.00,,,0.00,Wunderground v.1.15,2013-03-21 22:33:00,
2013-03-21 18:39:00,40.5,15.0,29.87,NW,324,1.0,3.0,35,0.00,,,0.00,Wunderground v.1.15,2013-03-21 22:39:00,
2013-03-21 18:45:00,40.2,14.0,29.87,East,79,1.0,3.0,34,0.00,,,0.00,Wunderground v.1.15,2013-03-21 22:45:00,
2013-03-21 18:50:00,40.0,13.8,29.87,WNW,302,1.0,3.0,34,0.00,,,0.00,Wunderground v.1.15,2013-03-21 22:50:00,
2013-03-21 18:55:00,39.8,14.3,29.88,East,99,1.0,3.0,35,0.00,,,0.00,Wunderground v.1.15,2013-03-21 22:55:00,
2013-03-21 19:02:00,39.5,14.7,29.88,NE,46,0.0,3.0,36,0.00,,,0.00,Wunderground v.1.15,2013-03-21 23:02:00,
2013-03-21 19:08:00,39.3,14.5,29.88,ENE,65,0.0,3.0,36,0.00,,,0.00,Wunderground v.1.15,2013-03-21 23:08:00,
2013-03-21 19:14:00,39.1,14.4,29.89,ESE,115,0.0,3.0,36,0.00,,,0.00,Wunderground v.1.15,2013-03-21 23:14:00,
2013-03-21 19:19:00,38.9,14.2,29.89,ENE,60,0.0,3.0,36,0.00,,,0.00,Wunderground v.1.15,2013-03-21 23:19:00,
2013-03-21 19:25:00,38.7,14.6,29.89,WSW,240,0.0,3.0,37,0.00,,,0.00,Wunderground v.1.15,2013-03-21 23:25:00,
2013-03-21 19:31:00,38.5,14.4,29.90,WSW,240,0.0,3.0,37,0.00,,,0.00,Wunderground v.1.15,2013-03-21 23:31:00,
2013-03-21 19:37:00,38.2,14.2,29.90,SSE,162,0.0,3.0,37,0.00,,,0.00,Wunderground v.1.15,2013-03-21 23:37:00,
2013-03-21 19:43:00,38.0,14.0,29.90,South,174,1.0,3.0,37,0.00,,,0.00,Wunderground v.1.15,2013-03-21 23:43:00,
2013-03-21 19:48:00,37.9,13.9,29.90,ENE,68,0.0,3.0,37,0.00,,,0.00,Wunderground v.1.15,2013-03-21 23:48:00,
2013-03-21 19:54:00,37.7,13.7,29.91,West,273,0.0,3.0,37,0.00,,,0.00,Wunderground v.1.15,2013-03-21 23:54:00,
2013-03-21 19:59:00,37.5,13.6,29.91,NNE,32,0.0,3.0,37,0.00,,,0.00,Wunderground v.1.15,2013-03-21 23:59:00,
2013-03-21 20:05:00,37.4,14.7,29.91,SW,231,0.0,3.0,39,0.00,,,0.00,Wunderground v.1.15,2013-03-22 00:05:00,
2013-03-21 20:11:00,37.1,13.8,29.91,East,91,0.0,0.0,38,0.00,,,0.00,Wunderground v.1.15,2013-03-22 00:11:00,
2013-03-21 20:17:00,36.9,13.6,29.91,ESE,104,0.0,1.0,38,0.00,,,0.00,Wunderground v.1.15,2013-03-22 00:17:00,
2013-03-21 20:23:00,36.7,13.4,29.91,East,79,0.0,1.0,38,0.00,,,0.00,Wunderground v.1.15,2013-03-22 00:23:00,
2013-03-21 20:28:00,36.6,13.9,29.92,SW,233,0.0,2.0,39,0.00,,,0.00,Wunderground v.1.15,2013-03-22 00:28:00,
2013-03-21 20:33:00,36.5,13.3,29.92,WSW,246,0.0,1.0,38,0.00,,,0.00,Wunderground v.1.15,2013-03-22 00:33:00,
2013-03-21 20:39:00,36.3,13.1,29.93,West,276,0.0,1.0,38,0.00,,,0.00,Wunderground v.1.15,2013-03-22 00:39:00,
2013-03-21 20:45:00,36.1,13.5,29.93,ENE,67,0.0,0.0,39,0.00,,,0.00,Wunderground v.1.15,2013-03-22 00:45:00,
2013-03-21 20:51:00,36.0,13.4,29.94,West,276,0.0,0.0,39,0.00,,,0.00,Wunderground v.1.15,2013-03-22 00:51:00,
2013-03-21 20:57:00,35.8,13.2,29.94,East,101,0.0,1.0,39,0.00,,,0.00,Wunderground v.1.15,2013-03-22 00:57:00,
2013-03-21 21:03:00,35.6,13.6,29.94,East,93,0.0,2.0,40,0.00,,,0.00,Wunderground v.1.15,2013-03-22 01:03:00,
2013-03-21 21:08:00,35.5,13.0,29.94,East,93,0.0,2.0,39,0.00,,,0.00,Wunderground v.1.15,2013-03-22 01:08:00,
2013-03-21 21:14:00,35.3,13.3,29.95,ESE,103,0.0,2.0,40,0.00,,,0.00,Wunderground v.1.15,2013-03-22 01:14:00,
2013-03-21 21:19:00,35.1,13.2,29.95,ESE,104,0.0,2.0,40,0.00,,,0.00,Wunderground v.1.15,2013-03-22 01:19:00,
2013-03-21 21:25:00,35.0,13.6,29.95,ENE,64,0.0,2.0,41,0.00,,,0.00,Wunderground v.1.15,2013-03-22 01:25:00,
2013-03-21 21:32:00,34.8,13.5,29.96,West,262,0.0,2.0,41,0.00,,,0.00,Wunderground v.1.15,2013-03-22 01:32:00,
2013-03-21 21:38:00,34.7,13.4,29.96,East,84,0.0,2.0,41,0.00,,,0.00,Wunderground v.1.15,2013-03-22 01:38:00,
2013-03-21 21:43:00,34.6,13.3,29.96,ESE,113,0.0,2.0,41,0.00,,,0.00,Wunderground v.1.15,2013-03-22 01:43:00,
2013-03-21 21:49:00,34.4,13.6,29.96,ESE,113,0.0,2.0,42,0.00,,,0.00,Wunderground v.1.15,2013-03-22 01:49:00,
2013-03-21 21:54:00,34.2,12.9,29.96,SE,124,0.0,2.0,41,0.00,,,0.00,Wunderground v.1.15,2013-03-22 01:54:00,
2013-03-21 22:00:00,34.2,12.9,29.96,ESE,117,0.0,2.0,41,0.00,,,0.00,Wunderground v.1.15,2013-03-22 02:00:00,
2013-03-21 22:05:00,34.1,13.4,29.97,ESE,117,0.0,2.0,42,0.00,,,0.00,Wunderground v.1.15,2013-03-22 02:05:00,
2013-03-21 22:13:00,33.9,13.7,29.97,East,92,0.0,2.0,43,0.00,,,0.00,Wunderground v.1.15,2013-03-22 02:13:00,
2013-03-21 22:19:00,33.7,12.5,29.97,East,92,0.0,2.0,41,0.00,,,0.00,Wunderground v.1.15,2013-03-22 02:19:00,
2013-03-21 22:24:00,33.6,12.9,29.96,SE,139,0.0,2.0,42,0.00,,,0.00,Wunderground v.1.15,2013-03-22 02:24:00,
2013-03-21 22:30:00,33.4,12.7,29.97,ESE,105,0.0,2.0,42,0.00,,,0.00,Wunderground v.1.15,2013-03-22 02:30:00,
2013-03-21 22:35:00,33.3,13.2,29.97,East,96,0.0,2.0,43,0.00,,,0.00,Wunderground v.1.15,2013-03-22 02:35:00,
2013-03-21 22:42:00,33.1,13.5,29.97,East,94,0.0,2.0,44,0.00,,,0.00,Wunderground v.1.15,2013-03-22 02:42:00,
2013-03-21 22:48:00,33.0,12.9,29.97,ESE,110,0.0,2.0,43,0.00,,,0.00,Wunderground v.1.15,2013-03-22 02:48:00,
2013-03-21 22:54:00,33.0,13.4,29.97,ESE,115,0.0,2.0,44,0.00,,,0.00,Wunderground v.1.15,2013-03-22 02:54:00,
2013-03-21 22:59:00,33.0,13.4,29.97,SE,124,0.0,2.0,44,0.00,,,0.00,Wunderground v.1.15,2013-03-22 02:59:00,
2013-03-21 23:05:00,32.9,12.8,29.97,East,84,0.0,2.0,43,0.00,,,0.00,Wunderground v.1.15,2013-03-22 03:05:00,
2013-03-21 23:12:00,32.9,13.9,29.97,SE,145,0.0,2.0,45,0.00,,,0.00,Wunderground v.1.15,2013-03-22 03:12:00,
2013-03-21 23:18:00,32.8,13.2,29.97,East,85,0.0,2.0,44,0.00,,,0.00,Wunderground v.1.15,2013-03-22 03:18:00,
2013-03-21 23:24:00,32.7,13.2,29.97,East,89,0.0,2.0,44,0.00,,,0.00,Wunderground v.1.15,2013-03-22 03:24:00,
2013-03-21 23:30:00,32.6,13.1,29.97,SE,128,0.0,2.0,44,0.00,,,0.00,Wunderground v.1.15,2013-03-22 03:30:00,
2013-03-21 23:35:00,32.5,13.5,29.97,SE,125,0.0,2.0,45,0.00,,,0.00,Wunderground v.1.15,2013-03-22 03:35:00,
2013-03-21 23:42:00,32.4,13.4,29.98,SE,138,0.0,2.0,45,0.00,,,0.00,Wunderground v.1.15,2013-03-22 03:42:00,
2013-03-21 23:48:00,32.3,13.3,29.98,WSW,248,0.0,2.0,45,0.00,,,0.00,Wunderground v.1.15,2013-03-22 03:48:00,
2013-03-21 23:54:00,32.3,13.3,29.98,WSW,256,0.0,2.0,45,0.00,,,0.00,Wunderground v.1.15,2013-03-22 03:54:00,